createdAt,value
2022-10-26T00:00:02.452Z,1011.2
2022-10-26T00:15:02.946Z,1011.1
2022-10-26T00:30:02.307Z,1011.1
2022-10-26T00:45:02.973Z,1011.1
2022-10-26T01:00:02.206Z,1011.1
2022-10-26T01:15:02.657Z,1010.9
2022-10-26T01:30:03.094Z,1010.8
2022-10-26T01:45:02.510Z,1010.6
2022-10-26T02:00:02.984Z,1010.5
2022-10-26T02:15:02.405Z,1010.4
2022-10-26T02:30:02.983Z,1010.3
2022-10-26T02:45:02.284Z,1010.1
2022-10-26T03:00:02.833Z,1010.0
2022-10-26T03:15:02.213Z,1010.0
2022-10-26T03:30:02.594Z,1010.0
2022-10-26T03:45:03.054Z,1010.0
2022-10-26T04:00:02.480Z,1009.9
2022-10-26T04:30:02.343Z,1010.0
2022-10-26T04:45:03.009Z,1009.9
2022-10-26T05:00:02.248Z,1009.8
2022-10-26T05:15:05.077Z,1009.9
2022-10-26T05:30:02.235Z,1009.8
2022-10-26T05:45:02.545Z,1009.8
2022-10-26T06:00:03.053Z,1010.0
2022-10-26T06:15:02.402Z,1010.2
2022-10-26T06:30:03.031Z,1010.3
2022-10-26T06:45:02.349Z,1010.3
2022-10-26T07:00:02.738Z,1010.2
2022-10-26T07:15:03.266Z,1010.3
2022-10-26T07:30:02.616Z,1010.3
2022-10-26T07:45:03.088Z,1010.3
2022-10-26T08:00:02.487Z,1010.3
2022-10-26T08:15:03.042Z,1010.3
2022-10-26T08:30:02.354Z,1010.3
2022-10-26T08:45:02.794Z,1010.3
2022-10-26T09:00:03.255Z,1010.2
2022-10-26T09:15:02.670Z,1010.1
2022-10-26T09:30:03.125Z,1010.0
2022-10-26T09:45:02.556Z,1010.1
2022-10-26T10:00:03.092Z,1010.3
2022-10-26T10:15:02.384Z,1010.4
2022-10-26T10:30:04.436Z,1010.7
2022-10-26T10:45:03.299Z,1010.8
2022-10-26T11:00:02.715Z,1011.0
2022-10-26T11:15:03.157Z,1010.9
2022-10-26T11:30:02.595Z,1010.8
2022-10-26T11:45:03.094Z,1010.9
2022-10-26T12:00:02.466Z,1011.0
2022-10-26T12:15:03.110Z,1011.0
2022-10-26T12:30:02.327Z,1011.0
2022-10-26T12:45:02.799Z,1011.2
2022-10-26T13:00:03.237Z,1011.5
2022-10-26T13:15:02.662Z,1011.5
2022-10-26T13:30:03.112Z,1011.5
2022-10-26T13:45:02.550Z,1011.5
2022-10-26T14:00:04.346Z,1011.5
2022-10-26T14:15:03.443Z,1011.6
2022-10-26T14:30:22.633Z,1011.8
2022-10-26T14:45:02.361Z,1012.0
2022-10-26T15:00:02.810Z,1012.1
2022-10-26T15:15:06.329Z,1012.3
2022-10-26T15:30:03.624Z,1012.4
2022-10-26T15:45:03.160Z,1012.6
2022-10-26T16:00:02.467Z,1012.7
2022-10-26T16:15:06.298Z,1013.0
2022-10-26T16:30:03.360Z,1013.2
2022-10-26T16:45:03.159Z,1013.4
2022-10-26T17:00:03.229Z,1013.7
2022-10-26T17:15:02.661Z,1013.9
2022-10-26T17:30:03.175Z,1014.3
2022-10-26T17:45:02.541Z,1014.5
2022-10-26T18:00:03.174Z,1014.9
2022-10-26T18:15:02.410Z,1015.0
2022-10-26T18:30:02.877Z,1015.2
2022-10-26T18:45:02.252Z,1015.4
2022-10-26T19:00:02.708Z,1015.6
2022-10-26T19:15:03.178Z,1015.7
2022-10-26T19:30:02.554Z,1015.8
2022-10-26T19:45:03.193Z,1015.9
2022-10-26T20:00:02.461Z,1016.1
2022-10-26T20:15:02.923Z,1016.0
2022-10-26T20:30:02.350Z,1016.4
2022-10-26T20:45:02.767Z,1016.5
2022-10-26T21:00:03.206Z,1016.6
2022-10-26T21:15:02.635Z,1016.7
2022-10-26T21:30:03.211Z,1016.8
2022-10-26T21:45:02.519Z,1016.9
2022-10-26T22:00:02.966Z,1016.9
2022-10-26T22:30:02.833Z,1017.0
2022-10-26T22:45:03.272Z,1017.0
2022-10-26T23:00:02.685Z,1017.1
2022-10-26T23:15:03.234Z,1017.0
2022-10-26T23:30:02.564Z,1017.4
2022-10-26T23:45:03.229Z,1017.4
